createdAt,value
2023-03-12T00:01:01.157Z,3.812
2023-03-12T00:04:00.292Z,3.812
2023-03-12T00:07:00.754Z,3.812
2023-03-12T00:10:00.428Z,3.812
2023-03-12T00:12:59.826Z,3.812
2023-03-12T00:16:00.923Z,3.812
2023-03-12T00:19:00.872Z,3.812
2023-03-12T00:22:00.828Z,3.812
2023-03-12T00:24:59.871Z,3.812
2023-03-12T00:28:00.317Z,3.812
2023-03-12T00:31:18.808Z,3.75
2023-03-12T00:33:59.500Z,3.75
2023-03-12T00:37:01.242Z,3.75
2023-03-12T00:40:00.894Z,3.812
2023-03-12T00:43:00.684Z,3.75
2023-03-12T00:46:00.410Z,3.75
2023-03-12T00:49:00.339Z,3.75
2023-03-12T00:52:01.044Z,3.75
2023-03-12T00:55:02.061Z,3.75
2023-03-12T00:57:59.207Z,3.75
2023-03-12T01:01:02.535Z,3.75
2023-03-12T01:04:01.166Z,3.75
2023-03-12T01:07:01.430Z,3.75
2023-03-12T01:10:00.875Z,3.75
2023-03-12T01:13:00.636Z,3.687
2023-03-12T01:16:00.858Z,3.687
2023-03-12T01:19:00.237Z,3.687
2023-03-12T01:22:01.076Z,3.687
2023-03-12T01:25:00.297Z,3.687
2023-03-12T01:28:01.055Z,3.687
2023-03-12T01:31:01.185Z,3.687
2023-03-12T01:33:59.959Z,3.687
2023-03-12T01:37:00.963Z,3.687
2023-03-12T01:40:01.512Z,3.687
2023-03-12T01:43:00.910Z,3.687
2023-03-12T01:46:00.831Z,3.687
2023-03-12T01:49:00.582Z,3.687
2023-03-12T01:52:01.408Z,3.687
2023-03-12T01:55:01.177Z,3.625
2023-03-12T01:58:01.092Z,3.625
2023-03-12T02:01:00.807Z,3.625
2023-03-12T02:04:01.374Z,3.625
2023-03-12T02:07:00.822Z,3.625
2023-03-12T02:09:59.450Z,3.625
2023-03-12T02:13:00.670Z,3.625
2023-03-12T02:16:02.433Z,3.625
2023-03-12T02:18:59.888Z,3.562
2023-03-12T02:22:00.187Z,3.625
2023-03-12T02:25:01.073Z,3.562
2023-03-12T02:27:59.900Z,3.562
2023-03-12T02:31:00.357Z,3.562
2023-03-12T02:33:59.196Z,3.562
2023-03-12T02:37:01.078Z,3.562
2023-03-12T02:40:00.760Z,3.562
2023-03-12T02:43:00.635Z,3.562
2023-03-12T02:46:01.672Z,3.562
2023-03-12T02:49:00.471Z,3.562
2023-03-12T02:52:01.032Z,3.562
2023-03-12T02:55:00.887Z,3.562
2023-03-12T02:57:59.456Z,3.5
2023-03-12T03:01:00.634Z,3.562
2023-03-12T03:04:01.304Z,3.5
2023-03-12T03:07:00.763Z,3.5
2023-03-12T03:10:00.634Z,3.5
2023-03-12T03:13:00.359Z,3.5
2023-03-12T03:16:01.381Z,3.5
2023-03-12T03:19:01.569Z,3.5
2023-03-12T03:22:00.389Z,3.5
2023-03-12T03:25:00.690Z,3.5
2023-03-12T03:28:00.628Z,3.5
2023-03-12T03:31:00.601Z,3.5
2023-03-12T03:34:00.277Z,3.5
2023-03-12T03:37:00.396Z,3.5
2023-03-12T03:40:00.937Z,3.5
2023-03-12T03:43:00.539Z,3.437
2023-03-12T03:46:00.243Z,3.437
2023-03-12T03:48:59.823Z,3.437
2023-03-12T03:52:01.249Z,3.437
2023-03-12T03:55:00.423Z,3.437
2023-03-12T03:58:01.055Z,3.437
2023-03-12T04:01:00.855Z,3.437
2023-03-12T04:04:00.176Z,3.437
2023-03-12T04:07:01.202Z,3.437
2023-03-12T04:10:02.508Z,3.437
2023-03-12T04:13:00.978Z,3.437
2023-03-12T04:16:00.477Z,3.437
2023-03-12T04:19:00.799Z,3.437
2023-03-12T04:22:00.573Z,3.437
2023-03-12T04:25:00.730Z,3.437
2023-03-12T04:28:00.696Z,3.437
2023-03-12T04:31:00.371Z,3.375
2023-03-12T04:34:00.632Z,3.375
2023-03-12T04:37:00.136Z,3.375
2023-03-12T04:40:00.941Z,3.375
2023-03-12T04:42:59.756Z,3.375
2023-03-12T04:46:00.548Z,3.375
2023-03-12T04:48:59.925Z,3.375
2023-03-12T04:52:00.813Z,3.375
2023-03-12T04:55:01.513Z,3.375
2023-03-12T04:58:00.448Z,3.375
2023-03-12T05:01:01.717Z,3.375
2023-03-12T05:04:01.546Z,3.375
2023-03-12T05:07:00.331Z,3.375
2023-03-12T05:10:01.660Z,3.375
2023-03-12T05:13:00.697Z,3.312
2023-03-12T05:16:00.601Z,3.312
2023-03-12T05:19:01.167Z,3.312
2023-03-12T05:21:59.599Z,3.312
2023-03-12T05:24:57.543Z,3.312
2023-03-12T05:28:01.543Z,3.312
2023-03-12T05:31:00.706Z,3.312
2023-03-12T05:34:01.072Z,3.312
2023-03-12T05:37:00.249Z,3.312
2023-03-12T05:40:00.322Z,3.312
2023-03-12T05:43:00.224Z,3.312
2023-03-12T05:45:59.818Z,3.25
2023-03-12T05:49:02.113Z,3.312
2023-03-12T05:52:03.363Z,3.312
2023-03-12T05:55:00.435Z,3.312
2023-03-12T05:58:00.469Z,3.312
2023-03-12T06:01:00.277Z,3.25
2023-03-12T06:04:01.145Z,3.25
2023-03-12T06:07:00.857Z,3.25
2023-03-12T06:10:01.025Z,3.25
2023-03-12T06:13:00.205Z,3.25
2023-03-12T06:16:00.686Z,3.25
2023-03-12T06:19:01.210Z,3.25
2023-03-12T06:22:01.137Z,3.25
2023-03-12T06:25:00.796Z,3.25
2023-03-12T06:28:00.915Z,3.25
2023-03-12T06:31:00.668Z,3.25
2023-03-12T06:34:01.683Z,3.25
2023-03-12T06:37:00.700Z,3.25
2023-03-12T06:40:00.525Z,3.25
2023-03-12T06:43:00.767Z,3.187
2023-03-12T06:46:01.331Z,3.25
2023-03-12T06:49:01.762Z,3.25
2023-03-12T06:52:01.071Z,3.187
2023-03-12T06:55:00.731Z,3.187
2023-03-12T06:58:01.166Z,3.187
2023-03-12T07:01:00.573Z,3.187
2023-03-12T07:04:02.206Z,3.187
2023-03-12T07:07:01.264Z,3.187
2023-03-12T07:10:01.393Z,3.187
2023-03-12T07:13:01.276Z,3.187
2023-03-12T07:16:02.352Z,3.187
2023-03-12T07:19:00.960Z,3.187
2023-03-12T07:21:59.765Z,3.187
2023-03-12T07:25:01.422Z,3.187
2023-03-12T07:28:01.051Z,3.187
2023-03-12T07:31:02.925Z,3.187
2023-03-12T07:34:00.744Z,3.187
2023-03-12T07:37:01.304Z,3.187
2023-03-12T07:40:01.470Z,3.187
2023-03-12T07:43:01.232Z,3.187
2023-03-12T07:46:01.200Z,3.187
2023-03-12T07:48:59.822Z,3.187
2023-03-12T07:52:00.970Z,3.125
2023-03-12T07:55:00.877Z,3.187
2023-03-12T07:58:01.224Z,3.187
2023-03-12T08:01:00.505Z,3.125
2023-03-12T08:04:01.066Z,3.125
2023-03-12T08:07:00.059Z,3.125
2023-03-12T08:10:01.262Z,3.125
2023-03-12T08:13:00.673Z,3.125
2023-03-12T08:16:01.105Z,3.125
2023-03-12T08:19:00.955Z,3.125
2023-03-12T08:22:00.774Z,3.125
2023-03-12T08:25:01.520Z,3.125
2023-03-12T08:28:00.984Z,3.125
2023-03-12T08:31:01.251Z,3.125
2023-03-12T08:34:00.957Z,3.125
2023-03-12T08:37:00.515Z,3.125
2023-03-12T08:40:01.341Z,3.125
2023-03-12T08:43:00.144Z,3.125
2023-03-12T08:46:00.884Z,3.125
2023-03-12T08:49:01.682Z,3.125
2023-03-12T08:52:01.688Z,3.125
2023-03-12T08:54:59.876Z,3.125
2023-03-12T08:57:59.884Z,3.125
2023-03-12T09:01:02.530Z,3.125
2023-03-12T09:04:00.547Z,3.125
2023-03-12T09:07:00.957Z,3.125
2023-03-12T09:10:01.058Z,3.125
2023-03-12T09:13:01.135Z,3.125
2023-03-12T09:16:01.585Z,3.125
2023-03-12T09:19:00.466Z,3.125
2023-03-12T09:22:00.764Z,3.062
2023-03-12T09:24:59.991Z,3.125
2023-03-12T09:28:00.827Z,3.125
2023-03-12T09:31:00.365Z,3.125
2023-03-12T09:33:59.997Z,3.125
2023-03-12T09:36:59.690Z,3.125
2023-03-12T09:40:02.591Z,3.125
2023-03-12T09:43:00.790Z,3.125
2023-03-12T09:46:00.710Z,3.125
2023-03-12T09:49:00.319Z,3.125
2023-03-12T09:52:02.178Z,3.125
2023-03-12T09:55:01.799Z,3.125
2023-03-12T09:58:01.469Z,3.125
2023-03-12T10:01:01.733Z,3.125
2023-03-12T10:04:00.880Z,3.125
2023-03-12T10:07:01.120Z,3.125
2023-03-12T10:10:01.619Z,3.125
2023-03-12T10:13:00.924Z,3.125
2023-03-12T10:16:01.084Z,3.125
2023-03-12T10:19:00.961Z,3.125
2023-03-12T10:22:01.605Z,3.125
2023-03-12T10:25:02.444Z,3.125
2023-03-12T10:28:01.512Z,3.125
2023-03-12T10:31:02.162Z,3.125
2023-03-12T10:34:01.286Z,3.125
2023-03-12T10:37:00.724Z,3.125
2023-03-12T10:40:00.736Z,3.125
2023-03-12T10:43:00.022Z,3.125
2023-03-12T10:46:00.440Z,3.187
2023-03-12T10:49:01.034Z,3.187
2023-03-12T10:52:00.314Z,3.187
2023-03-12T10:55:00.356Z,3.187
2023-03-12T10:58:01.309Z,3.187
2023-03-12T11:01:01.967Z,3.187
2023-03-12T11:04:19.271Z,3.187
2023-03-12T11:07:00.099Z,3.187
2023-03-12T11:10:01.747Z,3.187
2023-03-12T11:13:00.936Z,3.187
2023-03-12T11:16:00.748Z,3.187
2023-03-12T11:19:01.439Z,3.187
2023-03-12T11:21:59.969Z,3.25
2023-03-12T11:25:00.910Z,3.25
2023-03-12T11:28:00.312Z,3.25
2023-03-12T11:31:00.603Z,3.25
2023-03-12T11:34:00.520Z,3.25
2023-03-12T11:37:01.177Z,3.25
2023-03-12T11:39:59.879Z,3.25
2023-03-12T11:43:00.740Z,3.25
2023-03-12T11:45:59.967Z,3.25
2023-03-12T11:49:00.339Z,3.25
2023-03-12T11:52:00.727Z,3.25
2023-03-12T11:55:00.604Z,3.25
2023-03-12T11:58:00.835Z,3.312
2023-03-12T12:01:02.263Z,3.25
2023-03-12T12:04:00.023Z,3.312
2023-03-12T12:07:00.048Z,3.312
2023-03-12T12:10:01.615Z,3.312
2023-03-12T12:13:00.410Z,3.312
2023-03-12T12:16:00.981Z,3.312
2023-03-12T12:19:03.371Z,3.312
2023-03-12T12:22:00.882Z,3.312
2023-03-12T12:25:01.921Z,3.312
2023-03-12T12:28:01.181Z,3.312
2023-03-12T12:31:01.202Z,3.375
2023-03-12T12:34:00.168Z,3.375
2023-03-12T12:37:01.614Z,3.375
2023-03-12T12:40:02.186Z,3.375
2023-03-12T12:43:00.968Z,3.375
2023-03-12T12:46:00.635Z,3.375
2023-03-12T12:49:00.595Z,3.375
2023-03-12T12:52:00.525Z,3.375
2023-03-12T12:55:00.300Z,3.437
2023-03-12T12:58:00.437Z,3.437
2023-03-12T13:01:00.879Z,3.437
2023-03-12T13:04:01.484Z,3.437
2023-03-12T13:07:04.627Z,3.437
2023-03-12T13:10:01.632Z,3.437
2023-03-12T13:13:01.119Z,3.437
2023-03-12T13:16:00.652Z,3.437
2023-03-12T13:19:02.166Z,3.5
2023-03-12T13:22:01.262Z,3.437
2023-03-12T13:25:00.803Z,3.5
2023-03-12T13:28:01.035Z,3.5
2023-03-12T13:31:00.771Z,3.5
2023-03-12T13:34:00.821Z,3.5
2023-03-12T13:36:59.927Z,3.5
2023-03-12T13:40:00.600Z,3.5
2023-03-12T13:43:01.517Z,3.5
2023-03-12T13:46:03.530Z,3.562
2023-03-12T13:49:00.911Z,3.562
2023-03-12T13:52:00.644Z,3.562
2023-03-12T13:55:01.856Z,3.562
2023-03-12T13:58:00.665Z,3.562
2023-03-12T14:01:01.385Z,3.562
2023-03-12T14:04:00.958Z,3.562
2023-03-12T14:07:01.344Z,3.562
2023-03-12T14:10:00.483Z,3.562
2023-03-12T14:12:59.730Z,3.562
2023-03-12T14:16:00.660Z,3.562
2023-03-12T14:19:01.687Z,3.562
2023-03-12T14:22:01.322Z,3.562
2023-03-12T14:25:01.744Z,3.562
2023-03-12T14:27:59.956Z,3.625
2023-03-12T14:31:02.719Z,3.687
2023-03-12T14:34:00.727Z,3.625
2023-03-12T14:37:00.145Z,3.625
2023-03-12T14:40:01.318Z,3.687
2023-03-12T14:43:00.852Z,3.687
2023-03-12T14:46:01.593Z,3.687
2023-03-12T14:48:59.947Z,3.687
2023-03-12T14:52:00.834Z,3.687
2023-03-12T14:55:00.508Z,3.687
2023-03-12T14:58:00.640Z,3.75
2023-03-12T15:01:01.166Z,3.75
2023-03-12T15:04:00.727Z,3.75
2023-03-12T15:07:01.761Z,3.75
2023-03-12T15:10:02.482Z,3.75
2023-03-12T15:13:01.052Z,3.75
2023-03-12T15:16:01.300Z,3.75
2023-03-12T15:19:01.465Z,3.75
2023-03-12T15:22:01.708Z,3.812
2023-03-12T15:25:01.167Z,3.812
2023-03-12T15:28:01.155Z,3.812
2023-03-12T15:31:00.505Z,3.812
2023-03-12T15:34:00.410Z,3.812
2023-03-12T15:37:01.029Z,3.812
2023-03-12T15:40:00.884Z,3.812
2023-03-12T15:43:00.574Z,3.812
2023-03-12T15:46:01.207Z,3.875
2023-03-12T15:49:00.929Z,3.875
2023-03-12T15:52:00.530Z,3.875
2023-03-12T15:55:01.211Z,3.875
2023-03-12T15:58:00.756Z,3.875
2023-03-12T16:01:00.376Z,3.875
2023-03-12T16:04:02.220Z,3.875
2023-03-12T16:07:01.290Z,3.875
2023-03-12T16:10:00.901Z,3.875
2023-03-12T16:13:00.950Z,3.875
2023-03-12T16:16:01.207Z,3.875
2023-03-12T16:19:01.179Z,3.937
2023-03-12T16:22:01.734Z,3.937
2023-03-12T16:25:00.835Z,3.937
2023-03-12T16:28:00.329Z,3.937
2023-03-12T16:31:01.317Z,3.937
2023-03-12T16:34:01.718Z,3.937
2023-03-12T16:37:01.355Z,3.937
2023-03-12T16:40:01.038Z,4.0
2023-03-12T16:43:00.770Z,4.0
2023-03-12T16:46:01.795Z,4.0
2023-03-12T16:49:00.701Z,4.0
2023-03-12T16:52:01.830Z,4.0
2023-03-12T16:55:02.008Z,4.0
2023-03-12T16:58:01.405Z,4.0
2023-03-12T17:01:01.508Z,4.0
2023-03-12T17:04:00.126Z,4.0
2023-03-12T17:07:01.227Z,4.0
2023-03-12T17:10:01.820Z,4.0
2023-03-12T17:13:00.830Z,4.062
2023-03-12T17:16:02.040Z,4.062
2023-03-12T17:19:01.123Z,4.062
2023-03-12T17:22:00.669Z,4.062
2023-03-12T17:25:01.803Z,4.062
2023-03-12T17:28:00.985Z,4.062
2023-03-12T17:31:01.000Z,4.062
2023-03-12T17:34:00.506Z,4.062
2023-03-12T17:37:01.187Z,4.062
2023-03-12T17:40:01.001Z,4.062
2023-03-12T17:43:00.960Z,4.062
2023-03-12T17:46:01.418Z,4.062
2023-03-12T17:49:02.000Z,4.062
2023-03-12T17:52:00.708Z,4.062
2023-03-12T17:55:01.086Z,4.062
2023-03-12T17:58:00.662Z,4.125
2023-03-12T18:01:05.446Z,4.125
2023-03-12T18:04:00.418Z,4.125
2023-03-12T18:07:00.461Z,4.125
2023-03-12T18:10:02.172Z,4.125
2023-03-12T18:13:00.194Z,4.125
2023-03-12T18:16:00.818Z,4.125
2023-03-12T18:19:00.325Z,4.125
2023-03-12T18:22:00.787Z,4.125
2023-03-12T18:25:00.929Z,4.125
2023-03-12T18:28:00.254Z,4.125
2023-03-12T18:31:01.723Z,4.125
2023-03-12T18:34:00.433Z,4.125
2023-03-12T18:37:01.979Z,4.125
2023-03-12T18:40:00.775Z,4.125
2023-03-12T18:43:01.129Z,4.125
2023-03-12T18:46:01.188Z,4.125
2023-03-12T18:49:00.161Z,4.187
2023-03-12T18:52:01.038Z,4.187
2023-03-12T18:54:59.972Z,4.187
2023-03-12T18:58:01.649Z,4.187
2023-03-12T19:01:30.350Z,4.187
2023-03-12T19:04:00.711Z,4.187
2023-03-12T19:07:00.331Z,4.187
2023-03-12T19:10:01.027Z,4.187
2023-03-12T19:12:59.252Z,4.187
2023-03-12T19:16:00.777Z,4.187
2023-03-12T19:19:00.889Z,4.187
2023-03-12T19:22:00.173Z,4.187
2023-03-12T19:25:01.558Z,4.187
2023-03-12T19:28:00.653Z,4.187
2023-03-12T19:31:00.904Z,4.187
2023-03-12T19:34:01.389Z,4.187
2023-03-12T19:37:00.674Z,4.187
2023-03-12T19:40:00.487Z,4.187
2023-03-12T19:43:00.692Z,4.187
2023-03-12T19:46:00.446Z,4.187
2023-03-12T19:49:00.602Z,4.187
2023-03-12T19:52:00.468Z,4.187
2023-03-12T19:55:05.185Z,4.187
2023-03-12T19:57:59.995Z,4.187
2023-03-12T20:01:00.661Z,4.187
2023-03-12T20:04:00.320Z,4.187
2023-03-12T20:07:00.356Z,4.187
2023-03-12T20:10:00.753Z,4.187
2023-03-12T20:13:01.067Z,4.187
2023-03-12T20:16:01.401Z,4.187
2023-03-12T20:19:00.307Z,4.187
2023-03-12T20:21:59.907Z,4.187
2023-03-12T20:25:01.186Z,4.187
2023-03-12T20:28:00.682Z,4.187
2023-03-12T20:31:00.613Z,4.187
2023-03-12T20:33:59.934Z,4.187
2023-03-12T20:37:01.116Z,4.187
2023-03-12T20:40:00.163Z,4.187
2023-03-12T20:43:00.893Z,4.187
2023-03-12T20:46:00.610Z,4.187
2023-03-12T20:49:01.138Z,4.187
2023-03-12T20:52:00.504Z,4.187
2023-03-12T20:55:01.296Z,4.187
2023-03-12T20:58:00.685Z,4.187
2023-03-12T21:01:02.346Z,4.187
2023-03-12T21:04:01.112Z,4.187
2023-03-12T21:07:00.146Z,4.187
2023-03-12T21:10:01.334Z,4.187
2023-03-12T21:13:00.816Z,4.187
2023-03-12T21:16:01.069Z,4.187
2023-03-12T21:19:00.193Z,4.187
2023-03-12T21:22:00.292Z,4.187
2023-03-12T21:25:00.210Z,4.187
2023-03-12T21:27:59.730Z,4.187
2023-03-12T21:31:00.282Z,4.187
2023-03-12T21:34:00.297Z,4.187
2023-03-12T21:37:01.076Z,4.187
2023-03-12T21:40:00.702Z,4.187
2023-03-12T21:42:59.932Z,4.187
2023-03-12T21:46:00.843Z,4.187
2023-03-12T21:49:00.990Z,4.187
2023-03-12T21:52:00.991Z,4.187
2023-03-12T21:55:00.308Z,4.187
2023-03-12T21:58:01.189Z,4.187
2023-03-12T22:01:01.602Z,4.187
2023-03-12T22:04:00.325Z,4.187
2023-03-12T22:07:01.702Z,4.187
2023-03-12T22:10:02.021Z,4.187
2023-03-12T22:13:00.828Z,4.187
2023-03-12T22:16:00.647Z,4.187
2023-03-12T22:19:00.248Z,4.187
2023-03-12T22:22:01.035Z,4.187
2023-03-12T22:25:00.775Z,4.187
2023-03-12T22:28:00.290Z,4.187
2023-03-12T22:31:01.851Z,4.187
2023-03-12T22:34:00.703Z,4.187
2023-03-12T22:37:00.314Z,4.187
2023-03-12T22:40:00.448Z,4.187
2023-03-12T22:43:00.091Z,4.187
2023-03-12T22:46:01.782Z,4.187
2023-03-12T22:49:01.208Z,4.187
2023-03-12T22:51:59.696Z,4.187
2023-03-12T22:55:00.562Z,4.187
2023-03-12T22:58:01.344Z,4.187
2023-03-12T23:01:02.557Z,4.187
2023-03-12T23:04:00.776Z,4.187
2023-03-12T23:07:13.147Z,4.187
2023-03-12T23:10:00.905Z,4.187
2023-03-12T23:13:00.695Z,4.187
2023-03-12T23:16:00.708Z,4.187
2023-03-12T23:19:00.678Z,4.187
2023-03-12T23:22:00.150Z,4.187
2023-03-12T23:25:00.560Z,4.187
2023-03-12T23:28:01.095Z,4.187
2023-03-12T23:31:01.393Z,4.187
2023-03-12T23:34:00.711Z,4.187
2023-03-12T23:37:00.058Z,4.187
2023-03-12T23:40:00.739Z,4.187
2023-03-12T23:42:59.900Z,4.187
2023-03-12T23:46:00.653Z,4.187
2023-03-12T23:49:00.851Z,4.187
2023-03-12T23:52:00.276Z,4.187
2023-03-12T23:55:00.714Z,4.187
2023-03-12T23:58:01.255Z,4.25
